Airfield :
LOGIN :

Register | Disclaimer

   EN    FR    IT 

 










Legend :    VFR   Marginal VFR   IFR   Intensive IFR   Very Intensive IFR
Visi :
Ceiling :
>= 8 km
>= 3000ft
5 to 8 km
1000 to 3000 ft
1500m to 5 km
500 to 1000 ft
800 to 1500m
200 to 500 ft
< 800m
< 200 ft
Symbols :   Thunderstorms  Fog  Heavy snow  Heavy precipitations  Wind > 20 kt
SIGMETs :     Misc.  Thunderstorms  Icing  Turbulence  Mountain Waves  Volcanic Ashes






- Airport Elevation : 364 ft
- IATA code : FRA


EDDF - Frankfurt Int.

CURRENT METAR :
  • 250750Z VRB01KT 7000 MIFG SCT014 M03/M03 Q1033 BECMG 3000 BCFG

EXPIRED METARs :
  • 250720Z VRB02KT 6000 MIFG SCT014 M02/M03 Q1033 BECMG 3000 BCFG
  • 250650Z 12003KT 070V160 5000 MIFG BR SCT014 M03/M04 Q1033 BECMG 3000 BCFG
  • 250620Z VRB02KT 6000 MIFG FEW001 M02/M03 Q1033 BECMG 3000 BCFG
  • 250550Z 08003KT 8000 MIFG FEW001 M02/M03 Q1033 BECMG 3000 BCFG
  • 250520Z 06003KT 010V090 9000 FEW015 M02/M02 Q1033 BECMG 3000 BCFG

TAF TAF EDDF
Valid from the 25 at 06:00 until the 26 at 12:00 UTC


250500Z 2506/2612 08003KT CAVOK
TEMPO 2506/2510 0500 FZFG
BECMG 2510/2514 4000 BR BKN008
BECMG 2516/2520 0800 FZFG BKN001
BECMG 2608/2611 22005KT 4000 BR BKN010



MET'MAP, your aeronautical weather chart ! - Copyright ORBIFLY December 2007 - Disclaimer

ORBIFLY MET'MAP TEAM :

Programming & Development : Alexandra Zaïnal
Original concept : Baudouin d'Aumeries
Technical & hardware support : Manuel Goepfert
Assistance : Marc-Olivier Méhu

Contact : metmap@orbifly.com




SOURCES & CREDITS :

   NOAA